sensor_id;sensor_type;location;lat;lon;timestamp;pressure;altitude;pressure_sealevel;temperature;humidity
48718;BME280;34521;33.042;-96.586;2024-01-25T00:01:07;99816.89;;;20.42;22.56
48718;BME280;34521;33.042;-96.586;2024-01-25T00:03:33;99822.46;;;19.90;22.93
48718;BME280;34521;33.042;-96.586;2024-01-25T00:05:59;99818.41;;;19.56;23.07
48718;BME280;34521;33.042;-96.586;2024-01-25T00:08:23;99824.99;;;19.98;22.68
48718;BME280;34521;33.042;-96.586;2024-01-25T00:10:48;99831.86;;;19.83;22.57
48718;BME280;34521;33.042;-96.586;2024-01-25T00:13:14;99819.51;;;21.31;21.48
48718;BME280;34521;33.042;-96.586;2024-01-25T00:15:39;99815.43;;;22.02;21.41
48718;BME280;34521;33.042;-96.586;2024-01-25T00:18:06;99812.91;;;21.13;22.33
48718;BME280;34521;33.042;-96.586;2024-01-25T00:20:31;99821.93;;;20.81;22.41
48718;BME280;34521;33.042;-96.586;2024-01-25T00:22:56;99832.69;;;19.67;23.54
48718;BME280;34521;33.042;-96.586;2024-01-25T00:25:22;99841.49;;;20.22;23.20
48718;BME280;34521;33.042;-96.586;2024-01-25T00:27:50;99851.67;;;20.06;22.89
48718;BME280;34521;33.042;-96.586;2024-01-25T00:30:14;99861.29;;;20.70;22.42
48718;BME280;34521;33.042;-96.586;2024-01-25T00:32:38;99867.66;;;20.44;22.81
48718;BME280;34521;33.042;-96.586;2024-01-25T00:35:04;99868.02;;;20.60;22.35
48718;BME280;34521;33.042;-96.586;2024-01-25T00:37:30;99868.31;;;19.88;23.03
48718;BME280;34521;33.042;-96.586;2024-01-25T00:39:59;99872.46;;;20.23;22.73
48718;BME280;34521;33.042;-96.586;2024-01-25T00:42:22;99885.82;;;20.49;22.34
48718;BME280;34521;33.042;-96.586;2024-01-25T00:44:45;99893.57;;;20.27;22.69
48718;BME280;34521;33.042;-96.586;2024-01-25T00:47:13;99891.17;;;20.13;22.68
48718;BME280;34521;33.042;-96.586;2024-01-25T00:49:37;99891.57;;;20.17;22.81
48718;BME280;34521;33.042;-96.586;2024-01-25T00:52:04;99885.32;;;20.02;22.73
48718;BME280;34521;33.042;-96.586;2024-01-25T00:54:29;99884.67;;;21.05;22.21
48718;BME280;34521;33.042;-96.586;2024-01-25T00:56:52;99902.64;;;20.14;22.85
48718;BME280;34521;33.042;-96.586;2024-01-25T00:59:19;99915.60;;;20.37;22.32
48718;BME280;34521;33.042;-96.586;2024-01-25T01:01:44;99907.13;;;20.68;22.48
48718;BME280;34521;33.042;-96.586;2024-01-25T01:04:10;99902.49;;;21.41;21.47
48718;BME280;34521;33.042;-96.586;2024-01-25T01:06:37;99901.14;;;20.85;22.42
48718;BME280;34521;33.042;-96.586;2024-01-25T01:08:59;99880.37;;;21.31;21.66
48718;BME280;34521;33.042;-96.586;2024-01-25T01:11:24;99886.34;;;21.35;22.10
48718;BME280;34521;33.042;-96.586;2024-01-25T01:13:49;99895.93;;;21.14;22.13
48718;BME280;34521;33.042;-96.586;2024-01-25T01:16:14;99888.89;;;20.99;22.44
48718;BME280;34521;33.042;-96.586;2024-01-25T01:18:42;99878.51;;;21.76;21.98
48718;BME280;34521;33.042;-96.586;2024-01-25T01:21:06;99869.58;;;21.89;21.69
48718;BME280;34521;33.042;-96.586;2024-01-25T01:23:31;99872.32;;;21.82;21.79
48718;BME280;34521;33.042;-96.586;2024-01-25T01:25:57;99878.03;;;21.40;21.94
48718;BME280;34521;33.042;-96.586;2024-01-25T01:28:22;99881.66;;;21.71;21.81
48718;BME280;34521;33.042;-96.586;2024-01-25T01:30:48;99880.18;;;21.87;21.89
48718;BME280;34521;33.042;-96.586;2024-01-25T01:33:14;99890.61;;;21.86;21.21
48718;BME280;34521;33.042;-96.586;2024-01-25T01:35:38;99888.47;;;21.82;21.77
48718;BME280;34521;33.042;-96.586;2024-01-25T01:38:04;99879.50;;;21.96;21.72
48718;BME280;34521;33.042;-96.586;2024-01-25T01:40:29;99866.82;;;21.38;22.03
48718;BME280;34521;33.042;-96.586;2024-01-25T01:43:01;99874.48;;;21.17;22.40
48718;BME280;34521;33.042;-96.586;2024-01-25T01:45:20;99869.87;;;21.76;21.68
48718;BME280;34521;33.042;-96.586;2024-01-25T01:47:46;99858.45;;;21.35;22.33
48718;BME280;34521;33.042;-96.586;2024-01-25T01:50:12;99860.61;;;21.13;22.62
48718;BME280;34521;33.042;-96.586;2024-01-25T01:52:37;99863.68;;;20.23;23.42
48718;BME280;34521;33.042;-96.586;2024-01-25T01:55:03;99866.23;;;20.89;23.18
48718;BME280;34521;33.042;-96.586;2024-01-25T01:57:28;99870.00;;;20.23;23.51
48718;BME280;34521;33.042;-96.586;2024-01-25T01:59:52;99872.47;;;20.67;23.26
48718;BME280;34521;33.042;-96.586;2024-01-25T02:02:18;99872.46;;;20.04;23.94
48718;BME280;34521;33.042;-96.586;2024-01-25T02:04:44;99858.19;;;19.75;24.26
48718;BME280;34521;33.042;-96.586;2024-01-25T02:07:08;99860.71;;;19.84;24.14
48718;BME280;34521;33.042;-96.586;2024-01-25T02:09:35;99871.73;;;19.92;24.21
48718;BME280;34521;33.042;-96.586;2024-01-25T02:12:01;99882.09;;;20.82;23.17
48718;BME280;34521;33.042;-96.586;2024-01-25T02:14:25;99883.49;;;21.08;22.77
48718;BME280;34521;33.042;-96.586;2024-01-25T02:16:50;99879.16;;;21.08;22.68
48718;BME280;34521;33.042;-96.586;2024-01-25T02:19:17;99876.89;;;20.89;22.94
48718;BME280;34521;33.042;-96.586;2024-01-25T02:21:41;99865.95;;;20.42;23.43
48718;BME280;34521;33.042;-96.586;2024-01-25T02:24:08;99849.27;;;20.68;23.23
48718;BME280;34521;33.042;-96.586;2024-01-25T02:26:32;99857.34;;;20.14;23.75
48718;BME280;34521;33.042;-96.586;2024-01-25T02:28:57;99864.41;;;19.90;23.88
48718;BME280;34521;33.042;-96.586;2024-01-25T02:31:23;99866.41;;;19.67;24.14
48718;BME280;34521;33.042;-96.586;2024-01-25T02:33:48;99874.83;;;20.35;23.68
48718;BME280;34521;33.042;-96.586;2024-01-25T02:36:14;99882.66;;;20.08;23.97
48718;BME280;34521;33.042;-96.586;2024-01-25T02:38:38;99879.99;;;19.90;24.08
48718;BME280;34521;33.042;-96.586;2024-01-25T02:41:04;99879.97;;;20.95;22.99
48718;BME280;34521;33.042;-96.586;2024-01-25T02:43:28;99880.51;;;20.91;22.86
48718;BME280;34521;33.042;-96.586;2024-01-25T02:45:55;99876.40;;;20.92;22.68
48718;BME280;34521;33.042;-96.586;2024-01-25T02:48:20;99872.98;;;20.93;22.67
48718;BME280;34521;33.042;-96.586;2024-01-25T02:50:46;99879.18;;;20.22;23.56
48718;BME280;34521;33.042;-96.586;2024-01-25T02:53:12;99881.88;;;19.96;24.06
48718;BME280;34521;33.042;-96.586;2024-01-25T02:55:38;99884.37;;;19.73;24.12
48718;BME280;34521;33.042;-96.586;2024-01-25T02:58:04;99888.62;;;19.62;24.13
48718;BME280;34521;33.042;-96.586;2024-01-25T03:00:29;99903.09;;;19.56;24.22
48718;BME280;34521;33.042;-96.586;2024-01-25T03:02:58;99908.59;;;19.73;24.36
48718;BME280;34521;33.042;-96.586;2024-01-25T03:05:19;99914.66;;;19.38;24.59
48718;BME280;34521;33.042;-96.586;2024-01-25T03:07:47;99920.25;;;19.58;24.71
48718;BME280;34521;33.042;-96.586;2024-01-25T03:10:10;99913.13;;;19.46;24.51
48718;BME280;34521;33.042;-96.586;2024-01-25T03:12:35;99909.28;;;19.36;24.57
48718;BME280;34521;33.042;-96.586;2024-01-25T03:15:01;99911.05;;;21.43;22.69
48718;BME280;34521;33.042;-96.586;2024-01-25T03:17:27;99906.33;;;21.90;21.93
48718;BME280;34521;33.042;-96.586;2024-01-25T03:19:51;99905.49;;;19.68;23.83
48718;BME280;34521;33.042;-96.586;2024-01-25T03:22:17;99918.58;;;21.53;22.37
48718;BME280;34521;33.042;-96.586;2024-01-25T03:24:43;99926.30;;;22.69;21.64
48718;BME280;34521;33.042;-96.586;2024-01-25T03:27:08;99927.33;;;22.84;21.53
48718;BME280;34521;33.042;-96.586;2024-01-25T03:29:34;99935.84;;;21.83;22.40
48718;BME280;34521;33.042;-96.586;2024-01-25T03:32:00;99938.93;;;21.67;22.62
48718;BME280;34521;33.042;-96.586;2024-01-25T03:34:24;99933.30;;;22.32;22.12
48718;BME280;34521;33.042;-96.586;2024-01-25T03:36:50;99930.45;;;22.40;21.75
48718;BME280;34521;33.042;-96.586;2024-01-25T03:39:18;99934.52;;;22.57;21.74
48718;BME280;34521;33.042;-96.586;2024-01-25T03:41:42;99929.60;;;21.49;22.28
48718;BME280;34521;33.042;-96.586;2024-01-25T03:44:07;99926.17;;;22.27;22.07
48718;BME280;34521;33.042;-96.586;2024-01-25T03:46:32;99922.41;;;22.60;21.78
48718;BME280;34521;33.042;-96.586;2024-01-25T03:48:57;99915.39;;;22.82;21.56
48718;BME280;34521;33.042;-96.586;2024-01-25T03:51:25;99917.95;;;21.94;22.12
48718;BME280;34521;33.042;-96.586;2024-01-25T03:53:48;99911.77;;;22.08;22.22
48718;BME280;34521;33.042;-96.586;2024-01-25T03:56:14;99909.28;;;22.55;21.77
48718;BME280;34521;33.042;-96.586;2024-01-25T03:58:39;99910.67;;;22.69;21.52
48718;BME280;34521;33.042;-96.586;2024-01-25T04:01:04;99928.76;;;22.46;21.96
48718;BME280;34521;33.042;-96.586;2024-01-25T04:03:30;99948.84;;;21.57;22.79
48718;BME280;34521;33.042;-96.586;2024-01-25T04:05:55;99953.06;;;21.36;22.84
48718;BME280;34521;33.042;-96.586;2024-01-25T04:08:21;99953.35;;;22.50;22.12
48718;BME280;34521;33.042;-96.586;2024-01-25T04:10:48;99953.11;;;22.62;22.14
48718;BME280;34521;33.042;-96.586;2024-01-25T04:13:12;99957.16;;;22.61;21.95
48718;BME280;34521;33.042;-96.586;2024-01-25T04:15:36;99965.64;;;22.62;22.22
48718;BME280;34521;33.042;-96.586;2024-01-25T04:18:03;99969.05;;;22.83;21.77
48718;BME280;34521;33.042;-96.586;2024-01-25T04:20:28;99978.44;;;21.19;23.10
48718;BME280;34521;33.042;-96.586;2024-01-25T04:22:53;99981.79;;;21.16;23.17
48718;BME280;34521;33.042;-96.586;2024-01-25T04:25:19;99980.78;;;20.42;24.00
48718;BME280;34521;33.042;-96.586;2024-01-25T04:27:44;99979.49;;;20.53;24.00
48718;BME280;34521;33.042;-96.586;2024-01-25T04:30:10;99974.88;;;19.97;24.20
48718;BME280;34521;33.042;-96.586;2024-01-25T04:32:36;99973.97;;;19.77;24.61
48718;BME280;34521;33.042;-96.586;2024-01-25T04:35:02;99980.51;;;19.41;25.26
48718;BME280;34521;33.042;-96.586;2024-01-25T04:37:26;99982.77;;;19.44;25.17
48718;BME280;34521;33.042;-96.586;2024-01-25T04:39:51;99994.60;;;19.27;24.99
48718;BME280;34521;33.042;-96.586;2024-01-25T04:42:18;99999.45;;;19.05;25.29
48718;BME280;34521;33.042;-96.586;2024-01-25T04:44:43;99998.85;;;19.31;24.93
48718;BME280;34521;33.042;-96.586;2024-01-25T04:47:09;100009.60;;;18.91;25.27
48718;BME280;34521;33.042;-96.586;2024-01-25T04:49:33;100009.47;;;18.93;25.49
48718;BME280;34521;33.042;-96.586;2024-01-25T04:52:01;100002.36;;;20.21;24.20
48718;BME280;34521;33.042;-96.586;2024-01-25T04:54:25;100006.43;;;21.32;22.79
48718;BME280;34521;33.042;-96.586;2024-01-25T04:56:50;100007.00;;;22.11;22.23
48718;BME280;34521;33.042;-96.586;2024-01-25T04:59:17;100005.62;;;22.54;21.97
48718;BME280;34521;33.042;-96.586;2024-01-25T05:01:42;100007.33;;;22.50;21.97
48718;BME280;34521;33.042;-96.586;2024-01-25T05:04:07;100003.08;;;22.17;22.23
48718;BME280;34521;33.042;-96.586;2024-01-25T05:06:32;99992.49;;;22.03;22.30
48718;BME280;34521;33.042;-96.586;2024-01-25T05:08:57;99993.24;;;22.02;22.46
48718;BME280;34521;33.042;-96.586;2024-01-25T05:11:22;99986.72;;;21.95;22.65
48718;BME280;34521;33.042;-96.586;2024-01-25T05:13:49;99984.69;;;21.16;23.36
48718;BME280;34521;33.042;-96.586;2024-01-25T05:16:15;99980.50;;;21.48;22.81
48718;BME280;34521;33.042;-96.586;2024-01-25T05:18:39;99976.69;;;21.01;23.30
48718;BME280;34521;33.042;-96.586;2024-01-25T05:21:05;99964.21;;;21.35;23.13
48718;BME280;34521;33.042;-96.586;2024-01-25T05:23:31;99943.98;;;22.08;22.36
48718;BME280;34521;33.042;-96.586;2024-01-25T05:25:57;99924.67;;;22.60;22.20
48718;BME280;34521;33.042;-96.586;2024-01-25T05:28:21;99927.99;;;21.75;22.62
48718;BME280;34521;33.042;-96.586;2024-01-25T05:30:46;99940.50;;;22.47;22.05
48718;BME280;34521;33.042;-96.586;2024-01-25T05:33:12;99940.05;;;22.21;22.55
48718;BME280;34521;33.042;-96.586;2024-01-25T05:35:37;99952.35;;;21.82;22.79
48718;BME280;34521;33.042;-96.586;2024-01-25T05:38:04;99938.07;;;21.85;22.74
48718;BME280;34521;33.042;-96.586;2024-01-25T05:40:29;99944.36;;;21.56;23.03
48718;BME280;34521;33.042;-96.586;2024-01-25T05:42:57;99961.30;;;21.89;22.80
48718;BME280;34521;33.042;-96.586;2024-01-25T05:45:20;99954.03;;;20.91;23.59
48718;BME280;34521;33.042;-96.586;2024-01-25T05:47:45;99936.86;;;20.38;23.99
48718;BME280;34521;33.042;-96.586;2024-01-25T05:50:12;99954.97;;;20.53;23.81
48718;BME280;34521;33.042;-96.586;2024-01-25T05:52:35;99980.04;;;21.10;23.33
48718;BME280;34521;33.042;-96.586;2024-01-25T05:55:01;99982.73;;;20.76;23.52
48718;BME280;34521;33.042;-96.586;2024-01-25T05:57:26;99978.38;;;20.02;24.19
48718;BME280;34521;33.042;-96.586;2024-01-25T05:59:51;99967.20;;;20.35;24.06
48718;BME280;34521;33.042;-96.586;2024-01-25T06:02:17;99968.64;;;20.48;24.10
48718;BME280;34521;33.042;-96.586;2024-01-25T06:04:41;99975.56;;;19.90;24.29
48718;BME280;34521;33.042;-96.586;2024-01-25T06:07:07;99976.26;;;20.21;24.35
48718;BME280;34521;33.042;-96.586;2024-01-25T06:09:32;99982.51;;;20.03;24.07
48718;BME280;34521;33.042;-96.586;2024-01-25T06:11:58;99969.44;;;19.83;24.46
48718;BME280;34521;33.042;-96.586;2024-01-25T06:14:24;99953.11;;;20.10;24.18
48718;BME280;34521;33.042;-96.586;2024-01-25T06:16:50;99961.89;;;20.72;23.67
48718;BME280;34521;33.042;-96.586;2024-01-25T06:19:16;99952.58;;;20.72;23.90
48718;BME280;34521;33.042;-96.586;2024-01-25T06:21:39;99944.23;;;20.23;23.89
48718;BME280;34521;33.042;-96.586;2024-01-25T06:24:06;99938.43;;;19.84;24.17
48718;BME280;34521;33.042;-96.586;2024-01-25T06:26:31;99938.86;;;19.79;24.19
48718;BME280;34521;33.042;-96.586;2024-01-25T06:28:56;99940.98;;;19.94;24.04
48718;BME280;34521;33.042;-96.586;2024-01-25T06:31:21;99943.23;;;19.94;24.03
48718;BME280;34521;33.042;-96.586;2024-01-25T06:33:47;99936.32;;;20.32;23.88
48718;BME280;34521;33.042;-96.586;2024-01-25T06:36:14;99933.61;;;20.17;23.73
48718;BME280;34521;33.042;-96.586;2024-01-25T06:38:38;99945.36;;;20.04;23.81
48718;BME280;34521;33.042;-96.586;2024-01-25T06:41:06;99958.51;;;20.87;22.76
48718;BME280;34521;33.042;-96.586;2024-01-25T06:43:29;99960.59;;;20.52;23.29
48718;BME280;34521;33.042;-96.586;2024-01-25T06:45:54;99964.45;;;21.01;22.84
48718;BME280;34521;33.042;-96.586;2024-01-25T06:48:19;99973.03;;;20.78;22.98
48718;BME280;34521;33.042;-96.586;2024-01-25T06:50:47;99980.15;;;21.01;23.24
48718;BME280;34521;33.042;-96.586;2024-01-25T06:53:11;99978.33;;;20.34;23.36
48718;BME280;34521;33.042;-96.586;2024-01-25T06:55:36;99981.93;;;20.69;23.19
48718;BME280;34521;33.042;-96.586;2024-01-25T06:58:04;99973.80;;;20.02;23.67
48718;BME280;34521;33.042;-96.586;2024-01-25T07:00:27;99970.02;;;20.45;23.73
48718;BME280;34521;33.042;-96.586;2024-01-25T07:02:58;99968.67;;;20.28;23.48
48718;BME280;34521;33.042;-96.586;2024-01-25T07:05:18;99957.95;;;20.33;23.40
48718;BME280;34521;33.042;-96.586;2024-01-25T07:07:44;99943.08;;;20.61;23.50
48718;BME280;34521;33.042;-96.586;2024-01-25T07:10:11;99926.61;;;21.77;22.92
48718;BME280;34521;33.042;-96.586;2024-01-25T07:12:35;99923.11;;;20.92;22.79
48718;BME280;34521;33.042;-96.586;2024-01-25T07:15:02;99918.61;;;20.63;23.19
48718;BME280;34521;33.042;-96.586;2024-01-25T07:17:37;99921.93;;;20.62;22.98
48718;BME280;34521;33.042;-96.586;2024-01-25T07:19:53;99917.66;;;21.33;22.53
48718;BME280;34521;33.042;-96.586;2024-01-25T07:22:19;99905.49;;;20.61;23.04
48718;BME280;34521;33.042;-96.586;2024-01-25T07:24:44;99875.56;;;21.11;22.60
48718;BME280;34521;33.042;-96.586;2024-01-25T07:27:11;99851.01;;;21.05;22.61
48718;BME280;34521;33.042;-96.586;2024-01-25T07:29:35;99846.51;;;20.50;23.14
48718;BME280;34521;33.042;-96.586;2024-01-25T07:32:02;99853.47;;;20.47;23.23
48718;BME280;34521;33.042;-96.586;2024-01-25T07:34:31;99851.96;;;20.33;23.37
48718;BME280;34521;33.042;-96.586;2024-01-25T07:36:52;99843.58;;;20.33;23.36
48718;BME280;34521;33.042;-96.586;2024-01-25T07:39:17;99842.50;;;20.04;23.52
48718;BME280;34521;33.042;-96.586;2024-01-25T07:41:42;99851.60;;;19.97;23.65
48718;BME280;34521;33.042;-96.586;2024-01-25T07:44:08;99852.68;;;20.05;23.52
48718;BME280;34521;33.042;-96.586;2024-01-25T07:46:33;99853.97;;;20.48;23.19
48718;BME280;34521;33.042;-96.586;2024-01-25T07:48:58;99846.48;;;20.65;23.03
48718;BME280;34521;33.042;-96.586;2024-01-25T07:51:25;99852.08;;;20.62;22.98
48718;BME280;34521;33.042;-96.586;2024-01-25T07:53:51;99817.62;;;21.18;22.85
48718;BME280;34521;33.042;-96.586;2024-01-25T07:56:16;99823.13;;;20.92;22.73
48718;BME280;34521;33.042;-96.586;2024-01-25T07:58:42;99783.84;;;21.40;22.41
48718;BME280;34521;33.042;-96.586;2024-01-25T08:01:07;99760.38;;;20.09;23.53
48718;BME280;34521;33.042;-96.586;2024-01-25T08:03:33;99766.57;;;20.50;23.32
48718;BME280;34521;33.042;-96.586;2024-01-25T08:05:57;99779.90;;;20.47;23.14
48718;BME280;34521;33.042;-96.586;2024-01-25T08:08:28;99772.27;;;21.56;22.20
48718;BME280;34521;33.042;-96.586;2024-01-25T08:10:50;99782.20;;;21.40;22.49
48718;BME280;34521;33.042;-96.586;2024-01-25T08:13:15;99776.39;;;20.97;22.86
48718;BME280;34521;33.042;-96.586;2024-01-25T08:15:40;99827.82;;;20.86;22.86
48718;BME280;34521;33.042;-96.586;2024-01-25T08:18:07;99868.10;;;21.10;22.60
48718;BME280;34521;33.042;-96.586;2024-01-25T08:20:33;99889.44;;;21.36;22.40
48718;BME280;34521;33.042;-96.586;2024-01-25T08:22:57;99849.25;;;21.42;22.08
48718;BME280;34521;33.042;-96.586;2024-01-25T08:25:22;99840.92;;;21.90;21.89
48718;BME280;34521;33.042;-96.586;2024-01-25T08:27:49;99856.12;;;21.52;22.27
48718;BME280;34521;33.042;-96.586;2024-01-25T08:30:15;99876.07;;;20.80;22.88
48718;BME280;34521;33.042;-96.586;2024-01-25T08:32:41;99863.68;;;21.34;22.42
48718;BME280;34521;33.042;-96.586;2024-01-25T08:35:05;99863.63;;;20.36;22.99
48718;BME280;34521;33.042;-96.586;2024-01-25T08:37:32;99866.26;;;20.93;22.69
48718;BME280;34521;33.042;-96.586;2024-01-25T08:39:55;99855.86;;;20.75;22.81
48718;BME280;34521;33.042;-96.586;2024-01-25T08:42:20;99843.37;;;20.57;23.19
48718;BME280;34521;33.042;-96.586;2024-01-25T08:44:47;99846.00;;;20.65;22.85
48718;BME280;34521;33.042;-96.586;2024-01-25T08:47:11;99866.88;;;20.59;22.91
48718;BME280;34521;33.042;-96.586;2024-01-25T08:49:39;99848.32;;;20.52;22.99
48718;BME280;34521;33.042;-96.586;2024-01-25T08:52:03;99867.97;;;20.99;22.58
48718;BME280;34521;33.042;-96.586;2024-01-25T08:54:28;99864.24;;;20.96;22.77
48718;BME280;34521;33.042;-96.586;2024-01-25T08:56:56;99827.88;;;20.64;23.08
48718;BME280;34521;33.042;-96.586;2024-01-25T08:59:19;99895.90;;;21.07;22.56
48718;BME280;34521;33.042;-96.586;2024-01-25T09:01:45;99838.07;;;20.73;22.64
48718;BME280;34521;33.042;-96.586;2024-01-25T09:04:10;99757.83;;;21.12;22.41
48718;BME280;34521;33.042;-96.586;2024-01-25T09:06:35;99722.40;;;20.81;22.64
48718;BME280;34521;33.042;-96.586;2024-01-25T09:09:01;99790.70;;;21.38;22.13
48718;BME280;34521;33.042;-96.586;2024-01-25T09:11:26;99873.75;;;21.45;22.14
48718;BME280;34521;33.042;-96.586;2024-01-25T09:13:52;99842.06;;;20.85;22.59
48718;BME280;34521;33.042;-96.586;2024-01-25T09:16:18;99880.32;;;21.01;22.46
48718;BME280;34521;33.042;-96.586;2024-01-25T09:18:44;99867.44;;;20.99;22.38
48718;BME280;34521;33.042;-96.586;2024-01-25T09:21:09;99865.38;;;20.92;22.57
48718;BME280;34521;33.042;-96.586;2024-01-25T09:23:36;99845.86;;;21.44;21.96
48718;BME280;34521;33.042;-96.586;2024-01-25T09:25:59;99774.72;;;21.34;22.25
48718;BME280;34521;33.042;-96.586;2024-01-25T09:28:25;99741.01;;;21.08;22.38
48718;BME280;34521;33.042;-96.586;2024-01-25T09:30:51;99795.74;;;21.93;21.59
48718;BME280;34521;33.042;-96.586;2024-01-25T09:33:17;99811.22;;;21.55;21.90
48718;BME280;34521;33.042;-96.586;2024-01-25T09:35:40;99833.33;;;21.46;21.97
48718;BME280;34521;33.042;-96.586;2024-01-25T09:38:06;99821.66;;;21.51;21.95
48718;BME280;34521;33.042;-96.586;2024-01-25T09:40:31;99826.78;;;20.83;22.60
48718;BME280;34521;33.042;-96.586;2024-01-25T09:42:57;99826.64;;;21.18;22.29
48718;BME280;34521;33.042;-96.586;2024-01-25T09:45:22;99891.06;;;21.04;22.44
48718;BME280;34521;33.042;-96.586;2024-01-25T09:47:49;99888.96;;;21.17;22.79
48718;BME280;34521;33.042;-96.586;2024-01-25T09:50:13;99867.14;;;21.79;22.24
48718;BME280;34521;33.042;-96.586;2024-01-25T09:52:39;99848.58;;;20.96;22.47
48718;BME280;34521;33.042;-96.586;2024-01-25T09:55:08;99846.07;;;20.93;22.27
48718;BME280;34521;33.042;-96.586;2024-01-25T09:57:32;99856.02;;;21.05;22.30
48718;BME280;34521;33.042;-96.586;2024-01-25T09:59:58;99846.75;;;21.74;21.71
48718;BME280;34521;33.042;-96.586;2024-01-25T10:02:20;99853.59;;;21.14;22.27
48718;BME280;34521;33.042;-96.586;2024-01-25T10:04:50;99851.34;;;21.19;22.20
48718;BME280;34521;33.042;-96.586;2024-01-25T10:07:13;99847.68;;;21.87;22.15
48718;BME280;34521;33.042;-96.586;2024-01-25T10:09:40;99845.79;;;21.44;22.40
48718;BME280;34521;33.042;-96.586;2024-01-25T10:12:03;99846.07;;;21.08;22.52
48718;BME280;34521;33.042;-96.586;2024-01-25T10:14:28;99822.43;;;21.84;22.16
48718;BME280;34521;33.042;-96.586;2024-01-25T10:16:53;99833.77;;;20.63;22.84
48718;BME280;34521;33.042;-96.586;2024-01-25T10:19:20;99836.58;;;21.24;22.44
48718;BME280;34521;33.042;-96.586;2024-01-25T10:21:45;99850.30;;;21.16;22.42
48718;BME280;34521;33.042;-96.586;2024-01-25T10:24:10;99858.34;;;21.70;21.96
48718;BME280;34521;33.042;-96.586;2024-01-25T10:26:36;99858.24;;;21.49;22.08
48718;BME280;34521;33.042;-96.586;2024-01-25T10:29:01;99847.94;;;21.45;22.15
48718;BME280;34521;33.042;-96.586;2024-01-25T10:31:27;99865.44;;;21.12;22.38
48718;BME280;34521;33.042;-96.586;2024-01-25T10:33:53;99852.20;;;21.77;21.82
48718;BME280;34521;33.042;-96.586;2024-01-25T10:36:17;99839.70;;;21.18;22.15
48718;BME280;34521;33.042;-96.586;2024-01-25T10:38:43;99829.79;;;20.89;22.45
48718;BME280;34521;33.042;-96.586;2024-01-25T10:41:07;99790.54;;;21.46;22.14
48718;BME280;34521;33.042;-96.586;2024-01-25T10:43:34;99777.59;;;20.98;22.68
48718;BME280;34521;33.042;-96.586;2024-01-25T10:45:59;99773.64;;;21.29;22.15
48718;BME280;34521;33.042;-96.586;2024-01-25T10:48:24;99777.86;;;21.22;22.21
48718;BME280;34521;33.042;-96.586;2024-01-25T10:50:51;99775.47;;;21.31;22.37
48718;BME280;34521;33.042;-96.586;2024-01-25T10:53:16;99785.84;;;21.15;22.26
48718;BME280;34521;33.042;-96.586;2024-01-25T10:55:40;99788.46;;;21.25;22.24
48718;BME280;34521;33.042;-96.586;2024-01-25T10:58:08;99800.90;;;21.14;22.33
48718;BME280;34521;33.042;-96.586;2024-01-25T11:00:32;99812.80;;;21.73;21.80
48718;BME280;34521;33.042;-96.586;2024-01-25T11:02:56;99808.19;;;21.00;22.65
48718;BME280;34521;33.042;-96.586;2024-01-25T11:05:23;99794.31;;;21.56;22.33
48718;BME280;34521;33.042;-96.586;2024-01-25T11:07:48;99782.04;;;21.50;22.08
48718;BME280;34521;33.042;-96.586;2024-01-25T11:10:16;99768.23;;;20.98;22.49
48718;BME280;34521;33.042;-96.586;2024-01-25T11:12:50;99764.30;;;21.60;21.92
48718;BME280;34521;33.042;-96.586;2024-01-25T11:15:08;99760.12;;;21.43;21.98
48718;BME280;34521;33.042;-96.586;2024-01-25T11:17:33;99766.05;;;21.26;22.19
48718;BME280;34521;33.042;-96.586;2024-01-25T11:19:55;99775.13;;;21.25;22.32
48718;BME280;34521;33.042;-96.586;2024-01-25T11:22:19;99777.08;;;21.47;22.02
48718;BME280;34521;33.042;-96.586;2024-01-25T11:24:45;99794.03;;;21.33;22.13
48718;BME280;34521;33.042;-96.586;2024-01-25T11:27:11;99812.33;;;21.16;22.27
48718;BME280;34521;33.042;-96.586;2024-01-25T11:29:36;99824.84;;;21.25;22.28
48718;BME280;34521;33.042;-96.586;2024-01-25T11:32:00;99816.37;;;21.09;22.39
48718;BME280;34521;33.042;-96.586;2024-01-25T11:34:25;99807.47;;;21.34;22.14
48718;BME280;34521;33.042;-96.586;2024-01-25T11:36:50;99799.74;;;21.53;21.94
48718;BME280;34521;33.042;-96.586;2024-01-25T11:39:18;99805.92;;;21.00;22.36
48718;BME280;34521;33.042;-96.586;2024-01-25T11:41:43;99816.05;;;21.29;22.12
48718;BME280;34521;33.042;-96.586;2024-01-25T11:44:09;99821.61;;;21.28;22.15
48718;BME280;34521;33.042;-96.586;2024-01-25T11:46:32;99843.03;;;20.88;22.26
48718;BME280;34521;33.042;-96.586;2024-01-25T11:49:00;99843.03;;;21.58;22.13
48718;BME280;34521;33.042;-96.586;2024-01-25T11:51:25;99838.58;;;21.14;22.28
48718;BME280;34521;33.042;-96.586;2024-01-25T11:53:52;99826.18;;;21.52;21.77
48718;BME280;34521;33.042;-96.586;2024-01-25T11:56:19;99849.87;;;20.83;22.67
48718;BME280;34521;33.042;-96.586;2024-01-25T11:58:46;99858.08;;;21.68;21.86
48718;BME280;34521;33.042;-96.586;2024-01-25T12:01:06;99863.87;;;21.43;22.05
48718;BME280;34521;33.042;-96.586;2024-01-25T12:03:31;99867.38;;;21.05;22.33
48718;BME280;34521;33.042;-96.586;2024-01-25T12:05:59;99854.75;;;21.48;22.00
48718;BME280;34521;33.042;-96.586;2024-01-25T12:08:24;99859.99;;;21.00;22.38
48718;BME280;34521;33.042;-96.586;2024-01-25T12:10:50;99855.69;;;21.42;22.14
48718;BME280;34521;33.042;-96.586;2024-01-25T12:13:14;99862.62;;;21.39;22.10
48718;BME280;34521;33.042;-96.586;2024-01-25T12:15:40;99874.13;;;21.58;22.26
48718;BME280;34521;33.042;-96.586;2024-01-25T12:18:08;99867.20;;;21.44;22.08
48718;BME280;34521;33.042;-96.586;2024-01-25T12:20:29;99873.93;;;21.57;22.09
48718;BME280;34521;33.042;-96.586;2024-01-25T12:22:58;99877.57;;;21.52;22.00
48718;BME280;34521;33.042;-96.586;2024-01-25T12:25:22;99889.79;;;21.30;22.09
48718;BME280;34521;33.042;-96.586;2024-01-25T12:27:48;99892.99;;;21.60;22.25
48718;BME280;34521;33.042;-96.586;2024-01-25T12:30:14;99891.61;;;21.29;22.16